sensor_id;sensor_type;location;lat;lon;timestamp;temperature;humidity
61912;DHT22;49973;52.084;5.412;2024-03-22T00:01:55;11.70;99.90
61912;DHT22;49973;52.084;5.412;2024-03-22T00:04:23;11.80;99.90
61912;DHT22;49973;52.084;5.412;2024-03-22T00:06:51;11.80;99.90
61912;DHT22;49973;52.084;5.412;2024-03-22T00:09:18;11.80;99.90
61912;DHT22;49973;52.084;5.412;2024-03-22T00:11:45;11.80;99.90
61912;DHT22;49973;52.084;5.412;2024-03-22T00:14:13;11.80;99.90
61912;DHT22;49973;52.084;5.412;2024-03-22T00:16:40;11.80;99.90
61912;DHT22;49973;52.084;5.412;2024-03-22T00:19:08;11.80;99.90
61912;DHT22;49973;52.084;5.412;2024-03-22T00:21:34;11.80;99.90
61912;DHT22;49973;52.084;5.412;2024-03-22T00:24:04;11.90;99.90
61912;DHT22;49973;52.084;5.412;2024-03-22T00:26:30;11.80;99.90
61912;DHT22;49973;52.084;5.412;2024-03-22T00:28:58;11.80;99.90
61912;DHT22;49973;52.084;5.412;2024-03-22T00:31:25;11.80;99.90
61912;DHT22;49973;52.084;5.412;2024-03-22T00:33:52;11.80;99.90
61912;DHT22;49973;52.084;5.412;2024-03-22T00:36:19;11.80;99.90
61912;DHT22;49973;52.084;5.412;2024-03-22T00:38:47;11.70;99.90
61912;DHT22;49973;52.084;5.412;2024-03-22T00:41:15;11.70;99.90
61912;DHT22;49973;52.084;5.412;2024-03-22T00:43:43;11.70;99.90
61912;DHT22;49973;52.084;5.412;2024-03-22T00:46:10;11.70;99.90
61912;DHT22;49973;52.084;5.412;2024-03-22T00:48:37;11.70;99.90
61912;DHT22;49973;52.084;5.412;2024-03-22T00:51:04;11.70;99.90
61912;DHT22;49973;52.084;5.412;2024-03-22T00:53:32;11.60;99.90
61912;DHT22;49973;52.084;5.412;2024-03-22T00:55:59;11.60;99.90
61912;DHT22;49973;52.084;5.412;2024-03-22T00:58:28;11.60;99.90
61912;DHT22;49973;52.084;5.412;2024-03-22T01:00:55;11.60;99.90
61912;DHT22;49973;52.084;5.412;2024-03-22T01:03:23;11.60;99.90
61912;DHT22;49973;52.084;5.412;2024-03-22T01:05:49;11.60;99.90
61912;DHT22;49973;52.084;5.412;2024-03-22T01:08:17;11.50;99.90
61912;DHT22;49973;52.084;5.412;2024-03-22T01:10:44;11.50;99.90
61912;DHT22;49973;52.084;5.412;2024-03-22T01:13:11;11.50;99.90
61912;DHT22;49973;52.084;5.412;2024-03-22T01:15:39;11.50;99.90
61912;DHT22;49973;52.084;5.412;2024-03-22T01:18:07;11.50;99.90
61912;DHT22;49973;52.084;5.412;2024-03-22T01:20:33;11.50;99.90
61912;DHT22;49973;52.084;5.412;2024-03-22T01:23:01;11.50;99.90
61912;DHT22;49973;52.084;5.412;2024-03-22T01:25:28;11.50;99.90
61912;DHT22;49973;52.084;5.412;2024-03-22T01:27:56;11.50;99.90
61912;DHT22;49973;52.084;5.412;2024-03-22T01:30:22;11.50;99.90
61912;DHT22;49973;52.084;5.412;2024-03-22T01:32:56;11.50;99.90
61912;DHT22;49973;52.084;5.412;2024-03-22T01:35:22;11.50;99.90
61912;DHT22;49973;52.084;5.412;2024-03-22T01:37:50;11.50;99.90
61912;DHT22;49973;52.084;5.412;2024-03-22T01:40:17;11.50;99.90
61912;DHT22;49973;52.084;5.412;2024-03-22T01:42:44;11.50;99.90
61912;DHT22;49973;52.084;5.412;2024-03-22T01:45:14;11.50;99.90
61912;DHT22;49973;52.084;5.412;2024-03-22T01:47:42;11.50;99.90
61912;DHT22;49973;52.084;5.412;2024-03-22T01:50:10;11.50;99.90
61912;DHT22;49973;52.084;5.412;2024-03-22T01:52:39;11.50;99.90
61912;DHT22;49973;52.084;5.412;2024-03-22T01:55:07;11.50;99.90
61912;DHT22;49973;52.084;5.412;2024-03-22T01:57:36;11.60;99.90
61912;DHT22;49973;52.084;5.412;2024-03-22T02:00:05;11.60;99.90
61912;DHT22;49973;52.084;5.412;2024-03-22T02:02:40;11.60;99.90
61912;DHT22;49973;52.084;5.412;2024-03-22T02:05:14;11.70;99.90
61912;DHT22;49973;52.084;5.412;2024-03-22T02:07:45;11.70;99.90
61912;DHT22;49973;52.084;5.412;2024-03-22T02:10:12;11.70;99.90
61912;DHT22;49973;52.084;5.412;2024-03-22T02:12:40;11.70;99.90
61912;DHT22;49973;52.084;5.412;2024-03-22T02:15:08;11.70;99.90
61912;DHT22;49973;52.084;5.412;2024-03-22T02:17:35;11.70;99.90
61912;DHT22;49973;52.084;5.412;2024-03-22T02:20:03;11.70;99.90
61912;DHT22;49973;52.084;5.412;2024-03-22T02:22:32;11.80;99.90
61912;DHT22;49973;52.084;5.412;2024-03-22T02:25:00;11.80;99.90
61912;DHT22;49973;52.084;5.412;2024-03-22T02:27:28;11.80;99.90
61912;DHT22;49973;52.084;5.412;2024-03-22T02:29:54;11.80;99.90
61912;DHT22;49973;52.084;5.412;2024-03-22T02:32:22;11.80;99.90
61912;DHT22;49973;52.084;5.412;2024-03-22T02:34:49;11.80;99.90
61912;DHT22;49973;52.084;5.412;2024-03-22T02:37:16;11.90;99.90
61912;DHT22;49973;52.084;5.412;2024-03-22T02:39:43;11.80;99.90
61912;DHT22;49973;52.084;5.412;2024-03-22T02:42:12;11.90;99.90
61912;DHT22;49973;52.084;5.412;2024-03-22T02:44:38;11.90;99.90
61912;DHT22;49973;52.084;5.412;2024-03-22T02:47:09;11.90;99.90
61912;DHT22;49973;52.084;5.412;2024-03-22T02:49:37;11.80;99.90
61912;DHT22;49973;52.084;5.412;2024-03-22T02:52:05;11.80;99.90
61912;DHT22;49973;52.084;5.412;2024-03-22T02:54:32;11.80;99.90
61912;DHT22;49973;52.084;5.412;2024-03-22T02:56:59;11.80;99.90
61912;DHT22;49973;52.084;5.412;2024-03-22T02:59:29;11.80;99.90
61912;DHT22;49973;52.084;5.412;2024-03-22T03:01:57;11.80;99.90
61912;DHT22;49973;52.084;5.412;2024-03-22T03:04:23;11.70;99.90
61912;DHT22;49973;52.084;5.412;2024-03-22T03:06:51;11.70;99.90
61912;DHT22;49973;52.084;5.412;2024-03-22T03:09:17;11.70;99.90
61912;DHT22;49973;52.084;5.412;2024-03-22T03:11:45;11.60;99.90
61912;DHT22;49973;52.084;5.412;2024-03-22T03:14:11;11.60;99.90
61912;DHT22;49973;52.084;5.412;2024-03-22T03:16:40;11.60;99.90
61912;DHT22;49973;52.084;5.412;2024-03-22T03:19:07;11.60;99.90
61912;DHT22;49973;52.084;5.412;2024-03-22T03:21:35;11.50;99.90
61912;DHT22;49973;52.084;5.412;2024-03-22T03:24:01;11.50;99.90
61912;DHT22;49973;52.084;5.412;2024-03-22T03:26:29;11.50;99.90
61912;DHT22;49973;52.084;5.412;2024-03-22T03:28:55;11.50;99.90
61912;DHT22;49973;52.084;5.412;2024-03-22T03:31:23;11.50;99.90
61912;DHT22;49973;52.084;5.412;2024-03-22T03:33:52;11.40;99.90
61912;DHT22;49973;52.084;5.412;2024-03-22T03:36:20;11.40;99.90
61912;DHT22;49973;52.084;5.412;2024-03-22T03:38:46;11.40;99.90
61912;DHT22;49973;52.084;5.412;2024-03-22T03:41:14;11.40;99.90
61912;DHT22;49973;52.084;5.412;2024-03-22T03:43:41;11.40;99.90
61912;DHT22;49973;52.084;5.412;2024-03-22T03:46:08;11.40;99.90
61912;DHT22;49973;52.084;5.412;2024-03-22T03:48:35;11.40;99.90
61912;DHT22;49973;52.084;5.412;2024-03-22T03:51:04;11.30;99.90
61912;DHT22;49973;52.084;5.412;2024-03-22T03:53:31;11.30;99.90
61912;DHT22;49973;52.084;5.412;2024-03-22T03:55:59;11.30;99.90
61912;DHT22;49973;52.084;5.412;2024-03-22T03:58:26;11.30;99.90
61912;DHT22;49973;52.084;5.412;2024-03-22T04:00:53;11.20;99.90
61912;DHT22;49973;52.084;5.412;2024-03-22T04:03:20;11.20;99.90
61912;DHT22;49973;52.084;5.412;2024-03-22T04:05:56;11.20;99.90
61912;DHT22;49973;52.084;5.412;2024-03-22T04:08:24;11.20;99.90
61912;DHT22;49973;52.084;5.412;2024-03-22T04:10:52;11.30;99.90
61912;DHT22;49973;52.084;5.412;2024-03-22T04:13:19;11.20;99.90
61912;DHT22;49973;52.084;5.412;2024-03-22T04:15:47;11.20;99.90
61912;DHT22;49973;52.084;5.412;2024-03-22T04:18:13;11.10;99.90
61912;DHT22;49973;52.084;5.412;2024-03-22T04:20:41;11.10;99.90
61912;DHT22;49973;52.084;5.412;2024-03-22T04:23:09;11.20;99.90
61912;DHT22;49973;52.084;5.412;2024-03-22T04:25:38;11.10;99.90
61912;DHT22;49973;52.084;5.412;2024-03-22T04:28:05;11.10;99.90
61912;DHT22;49973;52.084;5.412;2024-03-22T04:30:32;11.10;99.90
61912;DHT22;49973;52.084;5.412;2024-03-22T04:32:59;11.10;99.90
61912;DHT22;49973;52.084;5.412;2024-03-22T04:35:27;11.00;99.90
61912;DHT22;49973;52.084;5.412;2024-03-22T04:37:53;11.00;99.90
61912;DHT22;49973;52.084;5.412;2024-03-22T04:40:21;11.00;99.90
61912;DHT22;49973;52.084;5.412;2024-03-22T04:42:50;11.00;99.90
61912;DHT22;49973;52.084;5.412;2024-03-22T04:45:17;11.00;99.90
61912;DHT22;49973;52.084;5.412;2024-03-22T04:47:44;11.00;99.90
61912;DHT22;49973;52.084;5.412;2024-03-22T04:50:12;11.00;99.90
61912;DHT22;49973;52.084;5.412;2024-03-22T04:52:40;10.90;99.90
61912;DHT22;49973;52.084;5.412;2024-03-22T04:55:08;10.90;99.90
61912;DHT22;49973;52.084;5.412;2024-03-22T04:57:35;10.90;99.90
61912;DHT22;49973;52.084;5.412;2024-03-22T05:00:04;10.90;99.90
61912;DHT22;49973;52.084;5.412;2024-03-22T05:02:33;10.90;99.90
61912;DHT22;49973;52.084;5.412;2024-03-22T05:05:01;10.90;99.90
61912;DHT22;49973;52.084;5.412;2024-03-22T05:07:28;10.90;99.90
61912;DHT22;49973;52.084;5.412;2024-03-22T05:09:56;10.90;99.90
61912;DHT22;49973;52.084;5.412;2024-03-22T05:12:23;10.90;99.90
61912;DHT22;49973;52.084;5.412;2024-03-22T05:14:50;10.90;99.90
61912;DHT22;49973;52.084;5.412;2024-03-22T05:17:18;10.80;99.90
61912;DHT22;49973;52.084;5.412;2024-03-22T05:19:46;10.90;99.90
61912;DHT22;49973;52.084;5.412;2024-03-22T05:22:13;10.80;99.90
61912;DHT22;49973;52.084;5.412;2024-03-22T05:24:40;10.90;99.90
61912;DHT22;49973;52.084;5.412;2024-03-22T05:27:07;10.80;99.90
61912;DHT22;49973;52.084;5.412;2024-03-22T05:29:35;10.80;99.90
61912;DHT22;49973;52.084;5.412;2024-03-22T05:32:02;10.80;99.90
61912;DHT22;49973;52.084;5.412;2024-03-22T05:34:33;10.80;99.90
61912;DHT22;49973;52.084;5.412;2024-03-22T05:37:00;10.80;99.90
61912;DHT22;49973;52.084;5.412;2024-03-22T05:39:27;10.80;99.90
61912;DHT22;49973;52.084;5.412;2024-03-22T05:41:54;10.80;99.90
61912;DHT22;49973;52.084;5.412;2024-03-22T05:44:21;10.80;99.90
61912;DHT22;49973;52.084;5.412;2024-03-22T05:46:48;10.80;99.90
61912;DHT22;49973;52.084;5.412;2024-03-22T05:49:16;10.80;99.90
61912;DHT22;49973;52.084;5.412;2024-03-22T05:51:45;10.80;99.90
61912;DHT22;49973;52.084;5.412;2024-03-22T05:54:13;10.80;99.90
61912;DHT22;49973;52.084;5.412;2024-03-22T05:56:40;10.80;99.90
61912;DHT22;49973;52.084;5.412;2024-03-22T05:59:07;10.70;99.90
61912;DHT22;49973;52.084;5.412;2024-03-22T06:01:34;10.70;99.90
61912;DHT22;49973;52.084;5.412;2024-03-22T06:04:02;10.70;99.90
61912;DHT22;49973;52.084;5.412;2024-03-22T06:06:29;10.70;99.90
61912;DHT22;49973;52.084;5.412;2024-03-22T06:08:59;10.70;99.90
61912;DHT22;49973;52.084;5.412;2024-03-22T06:11:30;10.80;99.90
61912;DHT22;49973;52.084;5.412;2024-03-22T06:13:57;10.80;99.90
61912;DHT22;49973;52.084;5.412;2024-03-22T06:16:24;10.80;99.90
61912;DHT22;49973;52.084;5.412;2024-03-22T06:18:52;10.80;99.90
61912;DHT22;49973;52.084;5.412;2024-03-22T06:21:19;10.80;99.90
61912;DHT22;49973;52.084;5.412;2024-03-22T06:23:49;10.90;99.90
61912;DHT22;49973;52.084;5.412;2024-03-22T06:26:17;10.80;99.90
61912;DHT22;49973;52.084;5.412;2024-03-22T06:28:45;10.80;99.90
61912;DHT22;49973;52.084;5.412;2024-03-22T06:31:11;10.80;99.90
61912;DHT22;49973;52.084;5.412;2024-03-22T06:33:39;10.80;99.90
61912;DHT22;49973;52.084;5.412;2024-03-22T06:36:06;10.80;99.90
61912;DHT22;49973;52.084;5.412;2024-03-22T06:38:34;10.90;99.90
61912;DHT22;49973;52.084;5.412;2024-03-22T06:41:00;10.90;99.90
61912;DHT22;49973;52.084;5.412;2024-03-22T06:43:31;10.90;99.90
61912;DHT22;49973;52.084;5.412;2024-03-22T06:45:58;10.90;99.90
61912;DHT22;49973;52.084;5.412;2024-03-22T06:48:25;11.00;99.90
61912;DHT22;49973;52.084;5.412;2024-03-22T06:50:52;11.00;99.90
61912;DHT22;49973;52.084;5.412;2024-03-22T06:53:20;11.00;99.90
61912;DHT22;49973;52.084;5.412;2024-03-22T06:55:46;11.10;99.90
61912;DHT22;49973;52.084;5.412;2024-03-22T06:58:14;11.10;99.90
61912;DHT22;49973;52.084;5.412;2024-03-22T07:00:42;11.20;99.90
61912;DHT22;49973;52.084;5.412;2024-03-22T07:03:11;11.30;99.90
61912;DHT22;49973;52.084;5.412;2024-03-22T07:05:39;11.30;99.90
61912;DHT22;49973;52.084;5.412;2024-03-22T07:08:07;11.40;99.90
61912;DHT22;49973;52.084;5.412;2024-03-22T07:10:33;11.30;99.90
61912;DHT22;49973;52.084;5.412;2024-03-22T07:13:01;11.40;99.90
61912;DHT22;49973;52.084;5.412;2024-03-22T07:15:27;11.40;99.90
61912;DHT22;49973;52.084;5.412;2024-03-22T07:17:59;11.50;99.90
61912;DHT22;49973;52.084;5.412;2024-03-22T07:20:26;11.60;99.90
61912;DHT22;49973;52.084;5.412;2024-03-22T07:22:53;11.60;99.90
61912;DHT22;49973;52.084;5.412;2024-03-22T07:25:21;11.60;99.90
61912;DHT22;49973;52.084;5.412;2024-03-22T07:27:49;11.60;99.90
61912;DHT22;49973;52.084;5.412;2024-03-22T07:30:16;11.60;99.90
61912;DHT22;49973;52.084;5.412;2024-03-22T07:32:46;11.70;99.90
61912;DHT22;49973;52.084;5.412;2024-03-22T07:35:15;11.70;99.90
61912;DHT22;49973;52.084;5.412;2024-03-22T07:37:43;11.70;99.90
61912;DHT22;49973;52.084;5.412;2024-03-22T07:40:10;11.70;99.90
61912;DHT22;49973;52.084;5.412;2024-03-22T07:42:38;11.70;99.90
61912;DHT22;49973;52.084;5.412;2024-03-22T07:45:05;11.70;99.90
61912;DHT22;49973;52.084;5.412;2024-03-22T07:47:32;11.70;99.90
61912;DHT22;49973;52.084;5.412;2024-03-22T07:50:00;11.60;99.90
61912;DHT22;49973;52.084;5.412;2024-03-22T07:52:29;11.60;99.90
61912;DHT22;49973;52.084;5.412;2024-03-22T07:54:56;11.60;99.90
61912;DHT22;49973;52.084;5.412;2024-03-22T07:57:24;11.60;99.90
61912;DHT22;49973;52.084;5.412;2024-03-22T07:59:50;11.60;99.90
61912;DHT22;49973;52.084;5.412;2024-03-22T08:02:18;11.60;99.90
61912;DHT22;49973;52.084;5.412;2024-03-22T08:04:45;11.70;99.90
61912;DHT22;49973;52.084;5.412;2024-03-22T08:07:12;11.60;99.90
61912;DHT22;49973;52.084;5.412;2024-03-22T08:09:40;11.60;99.90
61912;DHT22;49973;52.084;5.412;2024-03-22T08:12:08;11.60;99.90
61912;DHT22;49973;52.084;5.412;2024-03-22T08:14:35;11.60;99.90
61912;DHT22;49973;52.084;5.412;2024-03-22T08:17:03;11.50;99.90
61912;DHT22;49973;52.084;5.412;2024-03-22T08:19:29;11.60;99.90
61912;DHT22;49973;52.084;5.412;2024-03-22T08:21:57;11.60;99.90
61912;DHT22;49973;52.084;5.412;2024-03-22T08:24:24;11.60;99.90
61912;DHT22;49973;52.084;5.412;2024-03-22T08:26:53;11.50;99.90
61912;DHT22;49973;52.084;5.412;2024-03-22T08:29:20;11.50;99.90
61912;DHT22;49973;52.084;5.412;2024-03-22T08:31:48;11.60;99.90
61912;DHT22;49973;52.084;5.412;2024-03-22T08:34:14;11.50;99.90
61912;DHT22;49973;52.084;5.412;2024-03-22T08:36:42;11.50;99.90
61912;DHT22;49973;52.084;5.412;2024-03-22T08:39:08;11.50;99.90
61912;DHT22;49973;52.084;5.412;2024-03-22T08:41:36;11.50;99.90
61912;DHT22;49973;52.084;5.412;2024-03-22T08:44:05;11.50;99.90
61912;DHT22;49973;52.084;5.412;2024-03-22T08:46:33;11.40;99.90
61912;DHT22;49973;52.084;5.412;2024-03-22T08:49:00;11.40;99.90
61912;DHT22;49973;52.084;5.412;2024-03-22T08:51:28;11.40;99.90
61912;DHT22;49973;52.084;5.412;2024-03-22T08:53:55;11.30;99.90
61912;DHT22;49973;52.084;5.412;2024-03-22T08:56:23;11.30;99.90
61912;DHT22;49973;52.084;5.412;2024-03-22T08:58:50;11.20;99.90
61912;DHT22;49973;52.084;5.412;2024-03-22T09:01:22;11.20;99.90
61912;DHT22;49973;52.084;5.412;2024-03-22T09:03:49;11.20;99.90
61912;DHT22;49973;52.084;5.412;2024-03-22T09:06:17;11.20;99.90
61912;DHT22;49973;52.084;5.412;2024-03-22T09:08:44;11.20;99.90
61912;DHT22;49973;52.084;5.412;2024-03-22T09:11:11;11.10;99.90
61912;DHT22;49973;52.084;5.412;2024-03-22T09:13:38;11.10;99.90
61912;DHT22;49973;52.084;5.412;2024-03-22T09:16:06;11.10;99.90
61912;DHT22;49973;52.084;5.412;2024-03-22T09:18:34;11.10;99.90
61912;DHT22;49973;52.084;5.412;2024-03-22T09:21:02;11.10;99.90
61912;DHT22;49973;52.084;5.412;2024-03-22T09:23:29;11.10;99.90
61912;DHT22;49973;52.084;5.412;2024-03-22T09:25:56;11.10;99.90
61912;DHT22;49973;52.084;5.412;2024-03-22T09:28:24;11.10;99.90
61912;DHT22;49973;52.084;5.412;2024-03-22T09:30:52;11.10;99.90
61912;DHT22;49973;52.084;5.412;2024-03-22T09:33:19;11.20;99.90
61912;DHT22;49973;52.084;5.412;2024-03-22T09:35:48;11.20;99.90
61912;DHT22;49973;52.084;5.412;2024-03-22T09:38:15;11.20;99.90
61912;DHT22;49973;52.084;5.412;2024-03-22T09:40:42;11.10;99.90
61912;DHT22;49973;52.084;5.412;2024-03-22T09:43:10;11.20;99.90
61912;DHT22;49973;52.084;5.412;2024-03-22T09:45:42;11.20;99.90
61912;DHT22;49973;52.084;5.412;2024-03-22T09:48:10;11.20;99.90
61912;DHT22;49973;52.084;5.412;2024-03-22T09:50:38;11.10;99.90
61912;DHT22;49973;52.084;5.412;2024-03-22T09:53:06;11.10;99.90
61912;DHT22;49973;52.084;5.412;2024-03-22T09:55:37;11.20;99.90
61912;DHT22;49973;52.084;5.412;2024-03-22T09:58:06;11.10;99.90
61912;DHT22;49973;52.084;5.412;2024-03-22T10:00:33;11.10;99.90
61912;DHT22;49973;52.084;5.412;2024-03-22T10:03:00;11.20;99.90
61912;DHT22;49973;52.084;5.412;2024-03-22T10:05:28;11.10;99.90
61912;DHT22;49973;52.084;5.412;2024-03-22T10:07:55;11.10;99.90
61912;DHT22;49973;52.084;5.412;2024-03-22T10:10:25;11.20;99.90
61912;DHT22;49973;52.084;5.412;2024-03-22T10:12:51;11.20;99.90
61912;DHT22;49973;52.084;5.412;2024-03-22T10:15:19;11.20;99.90
61912;DHT22;49973;52.084;5.412;2024-03-22T10:17:47;11.20;99.90
61912;DHT22;49973;52.084;5.412;2024-03-22T10:20:14;11.20;99.90
61912;DHT22;49973;52.084;5.412;2024-03-22T10:22:48;11.20;99.90
61912;DHT22;49973;52.084;5.412;2024-03-22T10:25:16;11.20;99.90
61912;DHT22;49973;52.084;5.412;2024-03-22T10:27:44;11.30;99.90
61912;DHT22;49973;52.084;5.412;2024-03-22T10:30:12;11.20;99.90
61912;DHT22;49973;52.084;5.412;2024-03-22T10:32:42;11.20;99.90
61912;DHT22;49973;52.084;5.412;2024-03-22T10:35:12;11.20;99.90
61912;DHT22;49973;52.084;5.412;2024-03-22T10:37:40;11.30;99.90
61912;DHT22;49973;52.084;5.412;2024-03-22T10:40:09;11.20;99.90
61912;DHT22;49973;52.084;5.412;2024-03-22T10:42:37;11.30;99.90
61912;DHT22;49973;52.084;5.412;2024-03-22T10:45:08;11.30;99.90
61912;DHT22;49973;52.084;5.412;2024-03-22T10:47:36;11.30;99.90
61912;DHT22;49973;52.084;5.412;2024-03-22T10:50:06;11.30;99.90
61912;DHT22;49973;52.084;5.412;2024-03-22T10:52:35;11.30;99.90
61912;DHT22;49973;52.084;5.412;2024-03-22T10:55:08;11.30;99.90
61912;DHT22;49973;52.084;5.412;2024-03-22T10:57:37;11.30;99.90
61912;DHT22;49973;52.084;5.412;2024-03-22T11:00:11;11.20;99.90
61912;DHT22;49973;52.084;5.412;2024-03-22T11:02:38;11.20;99.90
61912;DHT22;49973;52.084;5.412;2024-03-22T11:05:06;11.20;99.90
61912;DHT22;49973;52.084;5.412;2024-03-22T11:07:33;11.30;99.90
61912;DHT22;49973;52.084;5.412;2024-03-22T11:10:01;11.30;99.90
61912;DHT22;49973;52.084;5.412;2024-03-22T11:12:29;11.30;99.90
61912;DHT22;49973;52.084;5.412;2024-03-22T11:14:59;11.40;99.90
61912;DHT22;49973;52.084;5.412;2024-03-22T11:17:27;11.40;99.90
61912;DHT22;49973;52.084;5.412;2024-03-22T11:19:57;11.50;99.90
61912;DHT22;49973;52.084;5.412;2024-03-22T11:22:25;11.60;99.90
61912;DHT22;49973;52.084;5.412;2024-03-22T11:24:53;11.60;99.90
61912;DHT22;49973;52.084;5.412;2024-03-22T11:27:19;11.70;99.90
61912;DHT22;49973;52.084;5.412;2024-03-22T11:29:47;11.70;99.90
61912;DHT22;49973;52.084;5.412;2024-03-22T11:32:17;11.70;99.90
61912;DHT22;49973;52.084;5.412;2024-03-22T11:34:46;11.70;99.90
61912;DHT22;49973;52.084;5.412;2024-03-22T11:37:13;11.70;99.90
61912;DHT22;49973;52.084;5.412;2024-03-22T11:39:41;11.70;99.90
61912;DHT22;49973;52.084;5.412;2024-03-22T11:42:09;11.80;99.90
61912;DHT22;49973;52.084;5.412;2024-03-22T11:44:38;11.80;99.90
61912;DHT22;49973;52.084;5.412;2024-03-22T11:47:05;11.80;99.90
61912;DHT22;49973;52.084;5.412;2024-03-22T11:49:33;11.80;99.90
61912;DHT22;49973;52.084;5.412;2024-03-22T11:52:01;11.90;99.90
61912;DHT22;49973;52.084;5.412;2024-03-22T11:54:29;11.90;99.90
61912;DHT22;49973;52.084;5.412;2024-03-22T11:56:57;11.90;99.90
61912;DHT22;49973;52.084;5.412;2024-03-22T11:59:25;11.90;99.90
61912;DHT22;49973;52.084;5.412;2024-03-22T12:01:52;12.00;99.90
61912;DHT22;49973;52.084;5.412;2024-03-22T12:04:22;11.90;99.90
61912;DHT22;49973;52.084;5.412;2024-03-22T12:06:49;11.80;99.90
61912;DHT22;49973;52.084;5.412;2024-03-22T12:09:18;11.80;99.90
61912;DHT22;49973;52.084;5.412;2024-03-22T12:11:44;11.80;99.90
61912;DHT22;49973;52.084;5.412;2024-03-22T12:14:14;11.70;99.90
61912;DHT22;49973;52.084;5.412;2024-03-22T12:16:40;11.70;99.90
61912;DHT22;49973;52.084;5.412;2024-03-22T12:19:08;11.60;99.90
61912;DHT22;49973;52.084;5.412;2024-03-22T12:21:35;11.60;99.90
61912;DHT22;49973;52.084;5.412;2024-03-22T12:24:03;11.60;99.90
61912;DHT22;49973;52.084;5.412;2024-03-22T12:26:32;11.60;99.90
61912;DHT22;49973;52.084;5.412;2024-03-22T12:28:59;11.50;99.90
61912;DHT22;49973;52.084;5.412;2024-03-22T12:31:26;11.50;99.90
61912;DHT22;49973;52.084;5.412;2024-03-22T12:33:53;11.50;99.90
61912;DHT22;49973;52.084;5.412;2024-03-22T12:36:20;11.50;99.90
61912;DHT22;49973;52.084;5.412;2024-03-22T12:38:47;11.50;99.90
61912;DHT22;49973;52.084;5.412;2024-03-22T12:41:15;11.40;99.90
61912;DHT22;49973;52.084;5.412;2024-03-22T12:43:43;11.50;99.90
61912;DHT22;49973;52.084;5.412;2024-03-22T12:46:10;11.40;99.90
61912;DHT22;49973;52.084;5.412;2024-03-22T12:48:37;11.40;99.90
61912;DHT22;49973;52.084;5.412;2024-03-22T12:51:05;11.40;99.90
61912;DHT22;49973;52.084;5.412;2024-03-22T12:53:33;11.50;99.90
61912;DHT22;49973;52.084;5.412;2024-03-22T12:56:00;11.40;99.90
61912;DHT22;49973;52.084;5.412;2024-03-22T12:58:27;11.30;99.90
61912;DHT22;49973;52.084;5.412;2024-03-22T13:00:56;11.30;99.90
61912;DHT22;49973;52.084;5.412;2024-03-22T13:03:23;11.30;99.90
61912;DHT22;49973;52.084;5.412;2024-03-22T13:05:51;11.40;99.90
61912;DHT22;49973;52.084;5.412;2024-03-22T13:08:18;11.40;99.90
61912;DHT22;49973;52.084;5.412;2024-03-22T13:10:46;11.40;99.90
61912;DHT22;49973;52.084;5.412;2024-03-22T13:13:14;11.40;99.90
61912;DHT22;49973;52.084;5.412;2024-03-22T13:15:43;11.40;99.90
61912;DHT22;49973;52.084;5.412;2024-03-22T13:18:11;11.40;99.90
61912;DHT22;49973;52.084;5.412;2024-03-22T13:20:39;11.60;99.90
61912;DHT22;49973;52.084;5.412;2024-03-22T13:23:06;11.40;99.90
61912;DHT22;49973;52.084;5.412;2024-03-22T13:25:35;11.40;99.90
61912;DHT22;49973;52.084;5.412;2024-03-22T13:28:03;11.40;99.90
61912;DHT22;49973;52.084;5.412;2024-03-22T13:30:31;11.40;99.90
61912;DHT22;49973;52.084;5.412;2024-03-22T13:32:58;11.40;99.90
61912;DHT22;49973;52.084;5.412;2024-03-22T13:35:27;11.40;99.90
61912;DHT22;49973;52.084;5.412;2024-03-22T13:37:54;11.40;99.90
61912;DHT22;49973;52.084;5.412;2024-03-22T13:40:22;11.40;99.90
61912;DHT22;49973;52.084;5.412;2024-03-22T13:42:52;11.50;99.90
61912;DHT22;49973;52.084;5.412;2024-03-22T13:45:21;11.50;99.90
61912;DHT22;49973;52.084;5.412;2024-03-22T13:47:48;11.60;99.90
61912;DHT22;49973;52.084;5.412;2024-03-22T13:50:15;11.60;99.90
61912;DHT22;49973;52.084;5.412;2024-03-22T13:52:43;11.60;99.90
61912;DHT22;49973;52.084;5.412;2024-03-22T13:55:11;11.60;99.90
61912;DHT22;49973;52.084;5.412;2024-03-22T13:57:38;11.60;99.90
61912;DHT22;49973;52.084;5.412;2024-03-22T14:00:06;11.60;99.90
61912;DHT22;49973;52.084;5.412;2024-03-22T14:02:39;11.60;99.90
61912;DHT22;49973;52.084;5.412;2024-03-22T14:05:06;11.50;99.90
61912;DHT22;49973;52.084;5.412;2024-03-22T14:07:35;11.50;99.90
61912;DHT22;49973;52.084;5.412;2024-03-22T14:10:08;11.40;99.90
61912;DHT22;49973;52.084;5.412;2024-03-22T14:12:35;11.40;99.90
61912;DHT22;49973;52.084;5.412;2024-03-22T14:15:03;11.20;99.90
61912;DHT22;49973;52.084;5.412;2024-03-22T14:17:30;11.20;99.90
61912;DHT22;49973;52.084;5.412;2024-03-22T14:19:57;11.20;99.90
61912;DHT22;49973;52.084;5.412;2024-03-22T14:22:24;11.30;99.90
61912;DHT22;49973;52.084;5.412;2024-03-22T14:24:54;11.20;99.90
61912;DHT22;49973;52.084;5.412;2024-03-22T14:27:22;11.30;99.90
61912;DHT22;49973;52.084;5.412;2024-03-22T14:29:50;11.40;99.90
61912;DHT22;49973;52.084;5.412;2024-03-22T14:32:18;11.40;99.90
61912;DHT22;49973;52.084;5.412;2024-03-22T14:34:46;11.60;99.90
61912;DHT22;49973;52.084;5.412;2024-03-22T14:37:12;11.60;99.90
61912;DHT22;49973;52.084;5.412;2024-03-22T14:39:40;11.60;99.90
61912;DHT22;49973;52.084;5.412;2024-03-22T14:42:08;11.70;99.90
61912;DHT22;49973;52.084;5.412;2024-03-22T14:44:37;11.80;99.90
61912;DHT22;49973;52.084;5.412;2024-03-22T14:47:04;11.80;99.90
61912;DHT22;49973;52.084;5.412;2024-03-22T14:49:31;11.90;99.90
61912;DHT22;49973;52.084;5.412;2024-03-22T14:51:58;11.90;99.90
61912;DHT22;49973;52.084;5.412;2024-03-22T14:54:26;11.90;99.90
61912;DHT22;49973;52.084;5.412;2024-03-22T14:56:53;11.90;99.90
61912;DHT22;49973;52.084;5.412;2024-03-22T14:59:21;11.80;99.90
61912;DHT22;49973;52.084;5.412;2024-03-22T15:01:49;11.80;99.90
61912;DHT22;49973;52.084;5.412;2024-03-22T15:04:17;11.70;99.90
61912;DHT22;49973;52.084;5.412;2024-03-22T15:06:43;11.70;99.90
61912;DHT22;49973;52.084;5.412;2024-03-22T15:09:12;11.70;99.90
61912;DHT22;49973;52.084;5.412;2024-03-22T15:11:39;11.80;99.90
61912;DHT22;49973;52.084;5.412;2024-03-22T15:14:08;11.70;99.90
61912;DHT22;49973;52.084;5.412;2024-03-22T15:16:35;11.60;99.90
61912;DHT22;49973;52.084;5.412;2024-03-22T15:19:04;11.50;99.90
61912;DHT22;49973;52.084;5.412;2024-03-22T15:21:30;11.50;99.90
61912;DHT22;49973;52.084;5.412;2024-03-22T15:23:58;11.40;99.90
61912;DHT22;49973;52.084;5.412;2024-03-22T15:26:25;11.40;99.90
61912;DHT22;49973;52.084;5.412;2024-03-22T15:28:52;11.40;99.90
61912;DHT22;49973;52.084;5.412;2024-03-22T15:31:19;11.40;99.90
61912;DHT22;49973;52.084;5.412;2024-03-22T15:33:47;11.40;99.90